Time,TemperatureF,DewpointF,PressureIn,WindDirection,WindDirectionDegrees,WindSpeedMPH,WindSpeedGustMPH,Humidity,HourlyPrecipIn,Conditions,Clouds,dailyrainin,SoftwareType,DateUTC
2013-12-18 00:03:00,55.6,53.2,30.27,ESE,103,5.0,6.9,92,0.00,,,-99.99,FreeWX 2.04,2013-12-18 06:03:00,
2013-12-18 00:08:00,55.6,53.2,30.27,ESE,103,5.0,6.7,92,0.00,,,-99.99,FreeWX 2.04,2013-12-18 06:08:00,
2013-12-18 00:13:00,55.6,53.2,30.27,ESE,104,5.0,6.3,92,0.00,,,-99.99,FreeWX 2.04,2013-12-18 06:13:00,
2013-12-18 00:18:00,55.6,53.1,30.27,ESE,103,5.0,6.7,91,0.00,,,-99.99,FreeWX 2.04,2013-12-18 06:18:00,
2013-12-18 00:23:00,55.6,53.1,30.27,East,101,5.0,6.7,91,0.00,,,-99.99,FreeWX 2.04,2013-12-18 06:23:00,
2013-12-18 00:28:00,55.6,53.1,30.27,East,101,5.0,6.9,91,0.00,,,-99.99,FreeWX 2.04,2013-12-18 06:28:00,
2013-12-18 00:33:00,55.6,53.1,30.27,East,100,6.0,7.4,91,0.00,,,-99.99,FreeWX 2.04,2013-12-18 06:33:00,
2013-12-18 00:38:00,55.6,53.1,30.27,ESE,102,5.0,6.7,91,0.00,,,-99.99,FreeWX 2.04,2013-12-18 06:38:00,
2013-12-18 00:43:00,55.6,52.7,30.27,ESE,102,5.0,6.7,90,0.00,,,-99.99,FreeWX 2.04,2013-12-18 06:43:00,
2013-12-18 00:48:00,55.6,52.7,30.27,East,101,5.0,6.7,90,0.00,,,-99.99,FreeWX 2.04,2013-12-18 06:48:00,
2013-12-18 00:53:00,55.6,52.7,30.27,East,101,5.0,6.9,90,0.00,,,-99.99,FreeWX 2.04,2013-12-18 06:53:00,
2013-12-18 00:58:00,55.6,52.7,30.27,East,101,5.0,6.7,90,0.00,,,-99.99,FreeWX 2.04,2013-12-18 06:58:00,
2013-12-18 01:03:00,55.6,52.7,30.27,East,100,5.0,6.7,90,0.00,,,-99.99,FreeWX 2.04,2013-12-18 07:03:00,
2013-12-18 01:08:00,55.6,52.7,30.27,East,100,5.0,6.9,90,0.00,,,-99.99,FreeWX 2.04,2013-12-18 07:08:00,
2013-12-18 01:13:00,55.6,52.7,30.27,East,99,5.0,6.9,90,0.00,,,-99.99,FreeWX 2.04,2013-12-18 07:13:00,
2013-12-18 01:18:00,55.6,52.7,30.24,East,100,5.0,6.3,90,0.00,,,-99.99,FreeWX 2.04,2013-12-18 07:18:00,
2013-12-18 01:23:00,55.6,52.3,30.24,East,99,5.0,5.8,89,0.00,,,-99.99,FreeWX 2.04,2013-12-18 07:23:00,
2013-12-18 01:28:00,55.4,52.2,30.24,ESE,102,4.0,6.3,89,0.00,,,-99.99,FreeWX 2.04,2013-12-18 07:28:00,
2013-12-18 01:33:00,55.4,52.5,30.24,ESE,106,4.0,4.9,90,0.00,,,-99.99,FreeWX 2.04,2013-12-18 07:33:00,
2013-12-18 01:38:00,55.2,52.3,30.24,ESE,104,4.0,4.9,90,0.00,,,-99.99,FreeWX 2.04,2013-12-18 07:38:00,
2013-12-18 01:43:00,55.2,52.3,30.24,East,100,4.0,5.4,90,0.00,,,-99.99,FreeWX 2.04,2013-12-18 07:43:00,
2013-12-18 01:48:00,55.2,52.3,30.24,ESE,102,4.0,4.9,90,0.00,,,-99.99,FreeWX 2.04,2013-12-18 07:48:00,
2013-12-18 01:53:00,55.2,52.3,30.24,ESE,106,4.0,4.9,90,0.00,,,-99.99,FreeWX 2.04,2013-12-18 07:53:00,
2013-12-18 01:58:00,55.0,52.2,30.24,ESE,107,4.0,4.5,90,0.00,,,-99.99,FreeWX 2.04,2013-12-18 07:58:00,
2013-12-18 02:03:00,55.0,52.2,30.24,ESE,107,4.0,4.9,90,0.00,,,-99.99,FreeWX 2.04,2013-12-18 08:03:00,
2013-12-18 02:08:00,55.0,52.2,30.24,ESE,107,4.0,4.5,90,0.00,,,-99.99,FreeWX 2.04,2013-12-18 08:08:00,
2013-12-18 02:13:00,54.9,52.0,30.24,ESE,108,3.0,4.5,90,0.00,,,-99.99,FreeWX 2.04,2013-12-18 08:13:00,
2013-12-18 02:18:00,54.9,52.0,30.24,ESE,110,3.0,4.5,90,0.00,,,-99.99,FreeWX 2.04,2013-12-18 08:18:00,
2013-12-18 02:23:00,54.7,51.8,30.24,ESE,114,3.0,4.0,90,0.00,,,-99.99,FreeWX 2.04,2013-12-18 08:23:00,
2013-12-18 02:28:00,54.7,51.8,30.24,ESE,116,3.0,4.5,90,0.00,,,-99.99,FreeWX 2.04,2013-12-18 08:28:00,
2013-12-18 02:33:00,54.7,51.8,30.24,ESE,115,3.0,4.5,90,0.00,,,-99.99,FreeWX 2.04,2013-12-18 08:33:00,
2013-12-18 02:38:00,54.5,51.6,30.24,ESE,113,3.0,4.0,90,0.00,,,-99.99,FreeWX 2.04,2013-12-18 08:38:00,
2013-12-18 02:43:00,54.5,51.6,30.24,ESE,112,3.0,4.5,90,0.00,,,-99.99,FreeWX 2.04,2013-12-18 08:43:00,
2013-12-18 02:48:00,54.5,51.6,30.24,ESE,112,3.0,4.0,90,0.00,,,-99.99,FreeWX 2.04,2013-12-18 08:48:00,
2013-12-18 02:53:00,54.3,51.8,30.24,ESE,112,3.0,4.5,91,0.00,,,-99.99,FreeWX 2.04,2013-12-18 08:53:00,
2013-12-18 02:58:00,54.3,51.8,30.24,ESE,112,4.0,4.5,91,0.00,,,-99.99,FreeWX 2.04,2013-12-18 08:58:00,
2013-12-18 03:03:00,54.1,51.6,30.24,ESE,112,4.0,4.5,91,0.00,,,-99.99,FreeWX 2.04,2013-12-18 09:03:00,
2013-12-18 03:08:00,54.1,51.6,30.24,ESE,112,4.0,4.9,91,0.00,,,-99.99,FreeWX 2.04,2013-12-18 09:08:00,
2013-12-18 03:13:00,54.0,51.4,30.24,ESE,112,4.0,4.5,91,0.00,,,-99.99,FreeWX 2.04,2013-12-18 09:13:00,
2013-12-18 03:18:00,54.0,51.4,30.24,ESE,112,4.0,4.5,91,0.00,,,-99.99,FreeWX 2.04,2013-12-18 09:18:00,
2013-12-18 03:23:00,54.0,51.4,30.24,ESE,112,3.0,4.5,91,0.00,,,-99.99,FreeWX 2.04,2013-12-18 09:23:00,
2013-12-18 03:28:00,53.8,51.3,30.24,ESE,112,3.0,4.5,91,0.00,,,-99.99,FreeWX 2.04,2013-12-18 09:28:00,
2013-12-18 03:33:00,53.8,51.3,30.24,ESE,112,3.0,4.5,91,0.00,,,-99.99,FreeWX 2.04,2013-12-18 09:33:00,
2013-12-18 03:38:00,53.8,51.4,30.24,ESE,112,3.0,4.5,92,0.00,,,-99.99,FreeWX 2.04,2013-12-18 09:38:00,
2013-12-18 03:43:00,53.6,51.3,30.24,ESE,112,3.0,4.0,92,0.00,,,-99.99,FreeWX 2.04,2013-12-18 09:43:00,
2013-12-18 03:48:00,53.4,51.1,30.24,ESE,112,3.0,4.0,92,0.00,,,-99.99,FreeWX 2.04,2013-12-18 09:48:00,
2013-12-18 03:53:00,53.2,50.9,30.24,ESE,112,3.0,3.6,92,0.00,,,-99.99,FreeWX 2.04,2013-12-18 09:53:00,
2013-12-18 03:58:00,53.1,50.7,30.24,ESE,112,3.0,4.0,92,0.00,,,-99.99,FreeWX 2.04,2013-12-18 09:58:00,
2013-12-18 04:03:00,52.9,50.5,30.24,ESE,112,3.0,3.6,92,0.00,,,-99.99,FreeWX 2.04,2013-12-18 10:03:00,
2013-12-18 04:08:00,52.7,50.4,30.24,ESE,112,2.0,3.1,92,0.00,,,-99.99,FreeWX 2.04,2013-12-18 10:08:00,
2013-12-18 04:13:00,52.5,50.2,30.24,ESE,112,2.0,3.6,92,0.00,,,-99.99,FreeWX 2.04,2013-12-18 10:13:00,
2013-12-18 04:18:00,52.5,50.2,30.24,ESE,112,3.0,4.0,92,0.00,,,-99.99,FreeWX 2.04,2013-12-18 10:18:00,
2013-12-18 04:23:00,52.5,50.2,30.24,ESE,112,3.0,3.6,92,0.00,,,-99.99,FreeWX 2.04,2013-12-18 10:23:00,
2013-12-18 04:28:00,52.5,50.5,30.24,ESE,112,2.0,3.6,93,0.00,,,-99.99,FreeWX 2.04,2013-12-18 10:28:00,
2013-12-18 04:33:00,52.3,50.4,30.24,ESE,112,1.0,0.0,93,0.00,,,-99.99,FreeWX 2.04,2013-12-18 10:33:00,
2013-12-18 04:38:00,52.2,50.2,30.24,North,-999,0.0,0.0,93,0.00,,,-99.99,FreeWX 2.04,2013-12-18 10:38:00,
2013-12-18 04:43:00,52.2,50.2,30.24,North,-999,0.0,0.0,93,0.00,,,-99.99,FreeWX 2.04,2013-12-18 10:43:00,
2013-12-18 04:48:00,52.3,50.4,30.24,North,-999,0.0,3.6,93,0.00,,,-99.99,FreeWX 2.04,2013-12-18 10:48:00,
2013-12-18 04:53:00,52.3,50.4,30.24,ESE,112,1.0,3.1,93,0.00,,,-99.99,FreeWX 2.04,2013-12-18 10:53:00,
2013-12-18 04:58:00,52.5,50.5,30.24,ESE,112,2.0,3.6,93,0.00,,,-99.99,FreeWX 2.04,2013-12-18 10:58:00,
2013-12-18 05:03:00,52.3,50.4,30.24,ESE,112,2.0,3.1,93,0.00,,,-99.99,FreeWX 2.04,2013-12-18 11:03:00,
2013-12-18 05:09:00,52.3,50.4,30.24,ESE,112,2.0,4.0,93,0.00,,,-99.99,FreeWX 2.04,2013-12-18 11:09:00,
2013-12-18 05:14:00,52.2,50.2,30.24,ESE,112,2.0,3.1,93,0.00,,,-99.99,FreeWX 2.04,2013-12-18 11:14:00,
2013-12-18 05:19:00,52.2,50.2,30.24,North,-999,0.0,2.7,93,0.00,,,-99.99,FreeWX 2.04,2013-12-18 11:19:00,
2013-12-18 05:24:00,52.0,50.0,30.24,North,-999,0.0,0.0,93,0.00,,,-99.99,FreeWX 2.04,2013-12-18 11:24:00,
2013-12-18 05:29:00,51.8,49.8,30.24,North,-999,0.0,0.0,93,0.00,,,-99.99,FreeWX 2.04,2013-12-18 11:29:00,
2013-12-18 05:34:00,51.8,50.2,30.24,North,-999,0.0,0.0,94,0.00,,,-99.99,FreeWX 2.04,2013-12-18 11:34:00,
2013-12-18 05:39:00,52.0,50.4,30.24,North,-999,0.0,0.0,94,0.00,,,-99.99,FreeWX 2.04,2013-12-18 11:39:00,
2013-12-18 05:44:00,52.3,50.7,30.24,North,-999,0.0,0.0,94,0.00,,,-99.99,FreeWX 2.04,2013-12-18 11:44:00,
2013-12-18 05:49:00,52.5,50.9,30.24,North,-999,0.0,0.0,94,0.00,,,-99.99,FreeWX 2.04,2013-12-18 11:49:00,
2013-12-18 05:54:00,52.5,50.9,30.24,North,-999,0.0,0.0,94,0.00,,,-99.99,FreeWX 2.04,2013-12-18 11:54:00,
2013-12-18 05:59:00,52.7,51.1,30.24,East,97,1.0,4.5,94,0.00,,,-99.99,FreeWX 2.04,2013-12-18 11:59:00,
2013-12-18 06:04:00,52.5,50.9,30.24,NE,46,3.0,4.9,94,0.00,,,-99.99,FreeWX 2.04,2013-12-18 12:04:00,
2013-12-18 06:09:00,52.5,50.9,30.24,NNE,24,3.0,4.0,94,0.00,,,-99.99,FreeWX 2.04,2013-12-18 12:09:00,
2013-12-18 06:14:00,52.3,50.7,30.24,NNE,24,3.0,4.5,94,0.00,,,-99.99,FreeWX 2.04,2013-12-18 12:14:00,
2013-12-18 06:19:00,52.3,50.7,30.24,NNE,24,3.0,4.5,94,0.00,,,-99.99,FreeWX 2.04,2013-12-18 12:19:00,
2013-12-18 06:24:00,52.2,50.7,30.24,NNE,31,3.0,4.5,95,0.00,,,-99.99,FreeWX 2.04,2013-12-18 12:24:00,
2013-12-18 06:29:00,52.2,50.7,30.24,NE,43,3.0,4.0,95,0.00,,,-99.99,FreeWX 2.04,2013-12-18 12:29:00,
2013-12-18 06:34:00,52.2,50.7,30.24,NE,48,3.0,4.5,95,0.00,,,-99.99,FreeWX 2.04,2013-12-18 12:34:00,
2013-12-18 06:39:00,52.2,50.7,30.24,NE,48,4.0,4.5,95,0.00,,,-99.99,FreeWX 2.04,2013-12-18 12:39:00,
2013-12-18 06:44:00,52.2,50.7,30.24,NE,48,3.0,4.5,95,0.00,,,-99.99,FreeWX 2.04,2013-12-18 12:44:00,
2013-12-18 06:49:00,52.2,50.7,30.24,NE,48,3.0,4.5,95,0.00,,,-99.99,FreeWX 2.04,2013-12-18 12:49:00,
2013-12-18 06:54:00,52.2,50.7,30.24,NE,47,3.0,4.5,95,0.00,,,-99.99,FreeWX 2.04,2013-12-18 12:54:00,
2013-12-18 06:59:00,52.0,50.5,30.24,NE,39,3.0,4.5,95,0.00,,,-99.99,FreeWX 2.04,2013-12-18 12:59:00,
2013-12-18 07:04:00,51.8,50.4,30.24,NE,41,3.0,4.5,95,0.00,,,-99.99,FreeWX 2.04,2013-12-18 13:04:00,
2013-12-18 07:09:00,51.8,50.7,30.24,NE,52,3.0,4.9,96,0.00,,,-99.99,FreeWX 2.04,2013-12-18 13:09:00,
2013-12-18 07:14:00,51.6,50.5,30.24,ENE,57,4.0,5.8,96,0.00,,,-99.99,FreeWX 2.04,2013-12-18 13:14:00,
2013-12-18 07:19:00,51.6,50.5,30.24,NE,54,4.0,4.9,96,0.00,,,-99.99,FreeWX 2.04,2013-12-18 13:19:00,
2013-12-18 07:24:00,51.6,50.5,30.24,NE,53,4.0,5.4,96,0.00,,,-99.99,FreeWX 2.04,2013-12-18 13:24:00,
2013-12-18 07:29:00,51.4,50.4,30.24,NE,55,4.0,6.7,96,0.00,,,-99.99,FreeWX 2.04,2013-12-18 13:29:00,
2013-12-18 07:34:00,51.4,50.4,30.24,NE,54,4.0,6.7,96,0.00,,,-99.99,FreeWX 2.04,2013-12-18 13:34:00,
2013-12-18 07:39:00,51.6,50.5,30.24,NE,56,5.0,6.9,96,0.00,,,-99.99,FreeWX 2.04,2013-12-18 13:39:00,
2013-12-18 07:44:00,51.6,50.5,30.24,ENE,59,5.0,6.7,96,0.00,,,-99.99,FreeWX 2.04,2013-12-18 13:44:00,
2013-12-18 07:49:00,51.6,50.5,30.24,NE,54,5.0,6.7,96,0.00,,,-99.99,FreeWX 2.04,2013-12-18 13:49:00,
2013-12-18 07:54:00,51.8,50.7,30.24,NE,49,4.0,5.8,96,0.00,,,-99.99,FreeWX 2.04,2013-12-18 13:54:00,
2013-12-18 07:59:00,52.0,50.9,30.24,NE,46,4.0,6.3,96,0.00,,,-99.99,FreeWX 2.04,2013-12-18 13:59:00,
2013-12-18 08:04:00,52.2,51.1,30.24,NE,51,4.0,6.9,96,0.00,,,-99.99,FreeWX 2.04,2013-12-18 14:04:00,
2013-12-18 08:09:00,52.2,51.1,30.24,ENE,58,5.0,6.9,96,0.00,,,-99.99,FreeWX 2.04,2013-12-18 14:09:00,
2013-12-18 08:14:00,52.3,51.3,30.24,ENE,59,5.0,7.4,96,0.00,,,-99.99,FreeWX 2.04,2013-12-18 14:14:00,
2013-12-18 08:19:00,52.5,51.4,30.27,ENE,60,6.0,7.8,96,0.00,,,-99.99,FreeWX 2.04,2013-12-18 14:19:00,
2013-12-18 08:24:00,52.9,51.8,30.27,ENE,60,6.0,7.8,96,0.00,,,-99.99,FreeWX 2.04,2013-12-18 14:24:00,
2013-12-18 08:29:00,53.1,52.0,30.27,ENE,60,6.0,7.8,96,0.00,,,-99.99,FreeWX 2.04,2013-12-18 14:29:00,
2013-12-18 08:34:00,53.4,52.3,30.27,ENE,62,6.0,6.9,96,0.00,,,-99.99,FreeWX 2.04,2013-12-18 14:34:00,
2013-12-18 08:39:00,53.8,52.7,30.27,ENE,66,5.0,6.7,96,0.00,,,-99.99,FreeWX 2.04,2013-12-18 14:39:00,
2013-12-18 08:44:00,54.1,53.1,30.27,ENE,68,4.0,6.3,96,0.00,,,-99.99,FreeWX 2.04,2013-12-18 14:44:00,
2013-12-18 08:49:00,54.5,53.4,30.27,ENE,66,4.0,5.4,96,0.00,,,-99.99,FreeWX 2.04,2013-12-18 14:49:00,
2013-12-18 08:54:00,54.7,53.6,30.27,ENE,64,3.0,4.9,96,0.00,,,-99.99,FreeWX 2.04,2013-12-18 14:54:00,
2013-12-18 08:59:00,55.0,54.0,30.27,ENE,66,3.0,4.9,96,0.00,,,-99.99,FreeWX 2.04,2013-12-18 14:59:00,
2013-12-18 09:04:00,55.6,54.5,30.27,ENE,58,3.0,4.5,96,0.00,,,-99.99,FreeWX 2.04,2013-12-18 15:04:00,
2013-12-18 09:09:00,55.9,54.9,30.27,NE,53,3.0,4.9,96,0.00,,,-99.99,FreeWX 2.04,2013-12-18 15:09:00,
2013-12-18 09:14:00,56.3,55.2,30.27,ENE,60,3.0,4.9,96,0.00,,,-99.99,FreeWX 2.04,2013-12-18 15:14:00,
2013-12-18 09:19:00,56.7,55.6,30.27,ENE,58,3.0,4.9,96,0.00,,,-99.99,FreeWX 2.04,2013-12-18 15:19:00,
2013-12-18 09:24:00,57.0,55.9,30.27,ENE,58,4.0,5.8,96,0.00,,,-99.99,FreeWX 2.04,2013-12-18 15:24:00,
2013-12-18 09:29:00,57.4,56.3,30.27,ENE,60,4.0,5.8,96,0.00,,,-99.99,FreeWX 2.04,2013-12-18 15:29:00,
2013-12-18 09:34:00,57.7,56.7,30.27,ENE,60,4.0,6.7,96,0.00,,,-99.99,FreeWX 2.04,2013-12-18 15:34:00,
2013-12-18 09:39:00,58.1,57.0,30.27,ENE,64,5.0,6.7,96,0.00,,,-99.99,FreeWX 2.04,2013-12-18 15:39:00,
2013-12-18 09:44:00,58.3,57.2,30.27,ENE,61,4.0,5.8,96,0.00,,,-99.99,FreeWX 2.04,2013-12-18 15:44:00,
2013-12-18 09:49:00,58.6,57.6,30.27,NE,56,3.0,4.9,96,0.00,,,-99.99,FreeWX 2.04,2013-12-18 15:49:00,
2013-12-18 09:54:00,59.0,57.9,30.27,ENE,57,2.0,4.0,96,0.00,,,-99.99,FreeWX 2.04,2013-12-18 15:54:00,
2013-12-18 09:59:00,59.4,58.3,30.27,ENE,59,1.0,3.6,96,0.00,,,-99.99,FreeWX 2.04,2013-12-18 15:59:00,
2013-12-18 10:04:00,59.7,58.6,30.27,ENE,62,1.0,3.6,96,0.00,,,-99.99,FreeWX 2.04,2013-12-18 16:04:00,
2013-12-18 10:09:00,60.3,59.2,30.27,North,-999,0.0,4.0,96,0.00,,,-99.99,FreeWX 2.04,2013-12-18 16:09:00,
2013-12-18 10:14:00,60.6,59.5,30.27,ENE,65,2.0,5.4,96,0.00,,,-99.99,FreeWX 2.04,2013-12-18 16:14:00,
2013-12-18 10:19:00,61.0,59.5,30.27,ENE,71,4.0,6.3,95,0.00,,,-99.99,FreeWX 2.04,2013-12-18 16:19:00,
2013-12-18 10:24:00,61.5,60.1,30.27,East,79,4.0,7.4,95,0.00,,,-99.99,FreeWX 2.04,2013-12-18 16:24:00,
2013-12-18 10:29:00,61.9,60.4,30.27,East,81,5.0,6.7,95,0.00,,,-99.99,FreeWX 2.04,2013-12-18 16:29:00,
2013-12-18 10:34:00,62.2,60.4,30.27,East,82,4.0,5.8,94,0.00,,,-99.99,FreeWX 2.04,2013-12-18 16:34:00,
2013-12-18 10:39:00,62.6,60.6,30.27,East,84,4.0,6.3,93,0.00,,,-99.99,FreeWX 2.04,2013-12-18 16:39:00,
2013-12-18 10:44:00,63.0,60.6,30.27,East,84,4.0,5.8,92,0.00,,,-99.99,FreeWX 2.04,2013-12-18 16:44:00,
2013-12-18 10:49:00,63.3,60.6,30.27,East,79,4.0,6.7,91,0.00,,,-99.99,FreeWX 2.04,2013-12-18 16:49:00,
2013-12-18 10:54:00,63.7,60.4,30.27,East,82,4.0,6.9,89,0.00,,,-99.99,FreeWX 2.04,2013-12-18 16:54:00,
2013-12-18 10:59:00,64.0,60.1,30.27,East,91,4.0,7.8,87,0.00,,,-99.99,FreeWX 2.04,2013-12-18 16:59:00,
2013-12-18 11:04:00,64.2,59.9,30.27,East,91,4.0,6.9,86,0.00,,,-99.99,FreeWX 2.04,2013-12-18 17:04:00,
2013-12-18 11:09:00,64.4,59.5,30.27,East,89,5.0,6.9,84,0.00,,,-99.99,FreeWX 2.04,2013-12-18 17:09:00,
2013-12-18 11:14:00,64.8,59.2,30.27,East,82,5.0,7.8,82,0.00,,,-99.99,FreeWX 2.04,2013-12-18 17:14:00,
2013-12-18 11:19:00,64.8,58.5,30.27,East,87,5.0,7.8,80,0.00,,,-99.99,FreeWX 2.04,2013-12-18 17:19:00,
2013-12-18 11:24:00,64.9,57.9,30.27,East,91,5.0,7.4,78,0.00,,,-99.99,FreeWX 2.04,2013-12-18 17:24:00,
2013-12-18 11:29:00,65.1,57.4,30.24,East,87,5.0,7.4,76,0.00,,,-99.99,FreeWX 2.04,2013-12-18 17:29:00,
2013-12-18 11:34:00,65.3,56.8,30.24,East,92,6.0,7.8,74,0.00,,,-99.99,FreeWX 2.04,2013-12-18 17:34:00,
2013-12-18 11:39:00,65.5,56.7,30.24,East,92,6.0,8.3,73,0.00,,,-99.99,FreeWX 2.04,2013-12-18 17:39:00,
2013-12-18 11:44:00,65.7,55.9,30.24,East,86,6.0,8.3,71,0.00,,,-99.99,FreeWX 2.04,2013-12-18 17:44:00,
2013-12-18 11:49:00,65.7,55.6,30.24,East,83,6.0,10.1,70,0.00,,,-99.99,FreeWX 2.04,2013-12-18 17:49:00,
2013-12-18 11:54:00,65.8,55.4,30.24,East,87,6.0,7.8,69,0.00,,,-99.99,FreeWX 2.04,2013-12-18 17:54:00,
2013-12-18 11:59:00,66.0,55.2,30.24,East,91,5.0,8.7,68,0.00,,,-99.99,FreeWX 2.04,2013-12-18 17:59:00,
2013-12-18 12:04:00,66.2,54.9,30.24,East,91,6.0,9.2,67,0.00,,,-99.99,FreeWX 2.04,2013-12-18 18:04:00,
2013-12-18 12:09:00,66.4,54.7,30.24,East,89,6.0,9.2,66,0.00,,,-99.99,FreeWX 2.04,2013-12-18 18:09:00,
2013-12-18 12:14:00,66.4,53.8,30.21,East,86,6.0,8.7,64,0.00,,,-99.99,FreeWX 2.04,2013-12-18 18:14:00,
2013-12-18 12:19:00,66.6,53.6,30.21,East,88,6.0,8.7,63,0.00,,,-99.99,FreeWX 2.04,2013-12-18 18:19:00,
2013-12-18 12:24:00,66.7,53.2,30.21,East,88,6.0,10.1,62,0.00,,,-99.99,FreeWX 2.04,2013-12-18 18:24:00,
2013-12-18 12:29:00,66.7,52.9,30.21,East,80,7.0,10.1,61,0.00,,,-99.99,FreeWX 2.04,2013-12-18 18:29:00,
2013-12-18 12:34:00,66.7,52.3,30.21,ENE,76,7.0,10.5,60,0.00,,,-99.99,FreeWX 2.04,2013-12-18 18:34:00,
2013-12-18 12:39:00,66.7,52.3,30.21,ENE,75,7.0,8.7,60,0.00,,,-99.99,FreeWX 2.04,2013-12-18 18:39:00,
2013-12-18 12:44:00,66.7,52.0,30.21,ENE,75,6.0,9.6,59,0.00,,,-99.99,FreeWX 2.04,2013-12-18 18:44:00,
2013-12-18 12:49:00,66.9,52.2,30.21,ENE,76,6.0,9.6,59,0.00,,,-99.99,FreeWX 2.04,2013-12-18 18:49:00,
2013-12-18 12:54:00,67.1,51.8,30.21,ENE,75,6.0,8.7,58,0.00,,,-99.99,FreeWX 2.04,2013-12-18 18:54:00,
2013-12-18 12:59:00,67.1,51.3,30.18,East,82,6.0,9.6,57,0.00,,,-99.99,FreeWX 2.04,2013-12-18 18:59:00,
2013-12-18 13:04:00,67.3,51.1,30.18,East,85,6.0,9.6,56,0.00,,,-99.99,FreeWX 2.04,2013-12-18 19:04:00,
2013-12-18 13:09:00,67.5,50.7,30.18,East,80,6.0,9.6,55,0.00,,,-99.99,FreeWX 2.04,2013-12-18 19:09:00,
2013-12-18 13:14:00,67.6,50.4,30.18,East,80,6.0,9.2,54,0.00,,,-99.99,FreeWX 2.04,2013-12-18 19:14:00,
2013-12-18 13:19:00,67.8,50.0,30.18,ENE,76,6.0,10.5,53,0.00,,,-99.99,FreeWX 2.04,2013-12-18 19:19:00,
2013-12-18 13:24:00,68.0,49.6,30.18,ENE,76,7.0,10.5,52,0.00,,,-99.99,FreeWX 2.04,2013-12-18 19:24:00,
2013-12-18 13:29:00,68.0,49.6,30.18,East,83,6.0,9.2,52,0.00,,,-99.99,FreeWX 2.04,2013-12-18 19:29:00,
2013-12-18 13:34:00,68.2,49.3,30.18,East,87,6.0,7.8,51,0.00,,,-99.99,FreeWX 2.04,2013-12-18 19:34:00,
2013-12-18 13:39:00,68.4,48.9,30.18,East,87,6.0,9.2,50,0.00,,,-99.99,FreeWX 2.04,2013-12-18 19:39:00,
2013-12-18 13:44:00,68.5,49.1,30.18,East,87,6.0,9.2,50,0.00,,,-99.99,FreeWX 2.04,2013-12-18 19:44:00,
2013-12-18 13:49:00,68.5,48.6,30.18,East,82,6.0,9.6,49,0.00,,,-99.99,FreeWX 2.04,2013-12-18 19:49:00,
2013-12-18 13:54:00,68.5,48.6,30.18,ENE,76,7.0,10.5,49,0.00,,,-99.99,FreeWX 2.04,2013-12-18 19:54:00,
2013-12-18 13:59:00,68.5,48.6,30.15,ENE,73,8.0,11.0,49,0.00,,,-99.99,FreeWX 2.04,2013-12-18 19:59:00,
2013-12-18 14:04:00,68.5,48.0,30.15,ENE,73,8.0,11.2,48,0.00,,,-99.99,FreeWX 2.04,2013-12-18 20:04:00,
2013-12-18 14:10:00,68.4,47.8,30.15,ENE,75,8.0,11.0,48,0.00,,,-99.99,FreeWX 2.04,2013-12-18 20:10:00,
2013-12-18 14:15:00,68.4,47.8,30.15,ENE,75,8.0,10.5,48,0.00,,,-99.99,FreeWX 2.04,2013-12-18 20:15:00,
2013-12-18 14:20:00,68.4,47.8,30.15,ENE,73,8.0,10.5,48,0.00,,,-99.99,FreeWX 2.04,2013-12-18 20:20:00,
2013-12-18 14:25:00,68.4,47.8,30.15,ENE,74,7.0,9.6,48,0.00,,,-99.99,FreeWX 2.04,2013-12-18 20:25:00,
2013-12-18 14:30:00,68.5,48.0,30.15,East,82,6.0,9.2,48,0.00,,,-99.99,FreeWX 2.04,2013-12-18 20:30:00,
2013-12-18 14:35:00,68.7,47.7,30.15,East,83,6.0,9.2,47,0.00,,,-99.99,FreeWX 2.04,2013-12-18 20:35:00,
2013-12-18 14:40:00,68.7,47.7,30.15,ENE,78,6.0,8.7,47,0.00,,,-99.99,FreeWX 2.04,2013-12-18 20:40:00,
2013-12-18 14:45:00,68.7,47.7,30.15,ENE,78,6.0,9.2,47,0.00,,,-99.99,FreeWX 2.04,2013-12-18 20:45:00,
2013-12-18 14:50:00,68.7,47.7,30.15,ENE,77,6.0,10.5,47,0.00,,,-99.99,FreeWX 2.04,2013-12-18 20:50:00,
2013-12-18 14:55:00,68.7,47.7,30.15,ENE,76,6.0,9.6,47,0.00,,,-99.99,FreeWX 2.04,2013-12-18 20:55:00,
2013-12-18 15:00:00,68.7,47.7,30.15,ENE,74,6.0,10.1,47,0.00,,,-99.99,FreeWX 2.04,2013-12-18 21:00:00,
2013-12-18 15:05:00,68.7,47.1,30.15,ENE,74,7.0,10.5,46,0.00,,,-99.99,FreeWX 2.04,2013-12-18 21:05:00,
2013-12-18 15:10:00,68.5,46.9,30.15,ENE,75,8.0,12.1,46,0.00,,,-99.99,FreeWX 2.04,2013-12-18 21:10:00,
2013-12-18 15:15:00,68.4,46.8,30.15,ENE,74,8.0,11.6,46,0.00,,,-99.99,FreeWX 2.04,2013-12-18 21:15:00,
2013-12-18 15:20:00,68.2,46.6,30.15,ENE,74,8.0,11.6,46,0.00,,,-99.99,FreeWX 2.04,2013-12-18 21:20:00,
2013-12-18 15:25:00,68.2,46.6,30.15,ENE,76,8.0,11.2,46,0.00,,,-99.99,FreeWX 2.04,2013-12-18 21:25:00,
2013-12-18 15:30:00,68.2,46.6,30.12,ENE,74,8.0,11.2,46,0.00,,,-99.99,FreeWX 2.04,2013-12-18 21:30:00,
2013-12-18 15:35:00,68.2,46.6,30.12,ENE,71,8.0,11.6,46,0.00,,,-99.99,FreeWX 2.04,2013-12-18 21:35:00,
2013-12-18 15:40:00,68.0,46.4,30.12,ENE,74,8.0,11.0,46,0.00,,,-99.99,FreeWX 2.04,2013-12-18 21:40:00,
2013-12-18 15:45:00,68.0,46.4,30.12,ENE,76,8.0,11.2,46,0.00,,,-99.99,FreeWX 2.04,2013-12-18 21:45:00,
2013-12-18 15:50:00,68.0,46.4,30.12,ENE,75,8.0,11.0,46,0.00,,,-99.99,FreeWX 2.04,2013-12-18 21:50:00,
2013-12-18 15:55:00,67.8,46.2,30.12,East,80,6.0,8.7,46,0.00,,,-99.99,FreeWX 2.04,2013-12-18 21:55:00,
2013-12-18 16:00:00,67.8,46.2,30.12,East,89,6.0,11.6,46,0.00,,,-99.99,FreeWX 2.04,2013-12-18 22:00:00,
2013-12-18 16:05:00,67.5,45.9,30.12,East,88,7.0,10.1,46,0.00,,,-99.99,FreeWX 2.04,2013-12-18 22:05:00,
2013-12-18 16:10:00,67.3,45.9,30.12,East,86,6.0,10.5,46,0.00,,,-99.99,FreeWX 2.04,2013-12-18 22:10:00,
2013-12-18 16:15:00,67.1,46.2,30.12,East,82,6.0,11.2,47,0.00,,,-99.99,FreeWX 2.04,2013-12-18 22:15:00,
2013-12-18 16:20:00,66.7,45.9,30.12,ENE,77,7.0,10.5,47,0.00,,,-99.99,FreeWX 2.04,2013-12-18 22:20:00,
2013-12-18 16:25:00,66.6,45.7,30.12,East,85,6.0,9.2,47,0.00,,,-99.99,FreeWX 2.04,2013-12-18 22:25:00,
2013-12-18 16:30:00,66.4,45.5,30.12,East,91,6.0,8.7,47,0.00,,,-99.99,FreeWX 2.04,2013-12-18 22:30:00,
2013-12-18 16:35:00,66.2,45.9,30.12,East,90,6.0,9.6,48,0.00,,,-99.99,FreeWX 2.04,2013-12-18 22:35:00,
2013-12-18 16:40:00,66.0,46.2,30.12,East,89,6.0,8.7,49,0.00,,,-99.99,FreeWX 2.04,2013-12-18 22:40:00,
2013-12-18 16:45:00,65.8,46.8,30.12,East,88,6.0,9.2,50,0.00,,,-99.99,FreeWX 2.04,2013-12-18 22:45:00,
2013-12-18 16:50:00,65.7,46.6,30.12,East,89,6.0,8.7,50,0.00,,,-99.99,FreeWX 2.04,2013-12-18 22:50:00,
2013-12-18 16:55:00,65.5,46.9,30.12,East,94,6.0,9.6,51,0.00,,,-99.99,FreeWX 2.04,2013-12-18 22:55:00,
2013-12-18 17:00:00,65.5,46.9,30.12,East,97,6.0,9.2,51,0.00,,,-99.99,FreeWX 2.04,2013-12-18 23:00:00,
2013-12-18 17:05:00,65.5,46.9,30.12,ESE,102,6.0,10.1,51,0.00,,,-99.99,FreeWX 2.04,2013-12-18 23:05:00,
2013-12-18 17:10:00,65.5,46.9,30.12,ESE,107,6.0,8.7,51,0.00,,,-99.99,FreeWX 2.04,2013-12-18 23:10:00,
2013-12-18 17:15:00,65.3,46.8,30.12,ESE,112,5.0,8.7,51,0.00,,,-99.99,FreeWX 2.04,2013-12-18 23:15:00,
2013-12-18 17:20:00,65.3,46.8,30.12,ESE,114,5.0,7.4,51,0.00,,,-99.99,FreeWX 2.04,2013-12-18 23:20:00,
2013-12-18 17:25:00,64.9,46.9,30.12,ESE,114,5.0,7.8,52,0.00,,,-99.99,FreeWX 2.04,2013-12-18 23:25:00,
2013-12-18 17:30:00,64.8,46.8,30.12,ESE,114,5.0,8.7,52,0.00,,,-99.99,FreeWX 2.04,2013-12-18 23:30:00,
2013-12-18 17:35:00,64.4,46.4,30.12,ESE,117,5.0,8.7,52,0.00,,,-99.99,FreeWX 2.04,2013-12-18 23:35:00,
2013-12-18 17:40:00,64.0,46.6,30.12,ESE,118,5.0,8.3,53,0.00,,,-99.99,FreeWX 2.04,2013-12-18 23:40:00,
2013-12-18 17:45:00,63.7,46.8,30.12,ESE,118,5.0,8.3,54,0.00,,,-99.99,FreeWX 2.04,2013-12-18 23:45:00,
2013-12-18 17:50:00,63.3,46.9,30.12,ESE,119,5.0,9.2,55,0.00,,,-99.99,FreeWX 2.04,2013-12-18 23:50:00,
2013-12-18 17:55:00,63.1,47.1,30.12,ESE,120,6.0,8.7,56,0.00,,,-99.99,FreeWX 2.04,2013-12-18 23:55:00,
2013-12-18 18:00:00,63.0,47.5,30.09,ESE,122,6.0,8.7,57,0.00,,,-99.99,FreeWX 2.04,2013-12-19 00:00:00,
2013-12-18 18:05:00,62.8,47.8,30.09,SE,124,6.0,9.2,58,0.00,,,-99.99,FreeWX 2.04,2013-12-19 00:05:00,
2013-12-18 18:10:00,62.6,48.0,30.09,SE,127,6.0,10.1,59,0.00,,,-99.99,FreeWX 2.04,2013-12-19 00:10:00,
2013-12-18 18:15:00,62.4,48.7,30.12,SE,125,6.0,11.6,61,0.00,,,-99.99,FreeWX 2.04,2013-12-19 00:15:00,
2013-12-18 18:20:00,62.4,49.6,30.12,ESE,122,6.0,10.1,63,0.00,,,-99.99,FreeWX 2.04,2013-12-19 00:20:00,
2013-12-18 18:25:00,62.2,49.8,30.12,ESE,121,6.0,8.7,64,0.00,,,-99.99,FreeWX 2.04,2013-12-19 00:25:00,
2013-12-18 18:30:00,62.1,50.2,30.09,ESE,120,6.0,9.2,65,0.00,,,-99.99,FreeWX 2.04,2013-12-19 00:30:00,
2013-12-18 18:35:00,62.1,50.5,30.09,ESE,121,6.0,12.1,66,0.00,,,-99.99,FreeWX 2.04,2013-12-19 00:35:00,
2013-12-18 18:40:00,61.9,50.4,30.09,SE,125,7.0,10.1,66,0.00,,,-99.99,FreeWX 2.04,2013-12-19 00:40:00,
2013-12-18 18:45:00,61.7,50.5,30.12,SE,126,7.0,11.0,67,0.00,,,-99.99,FreeWX 2.04,2013-12-19 00:45:00,
2013-12-18 18:50:00,61.5,50.9,30.12,SE,125,7.0,11.0,68,0.00,,,-99.99,FreeWX 2.04,2013-12-19 00:50:00,
2013-12-18 18:55:00,61.5,51.3,30.12,SE,126,6.0,11.0,69,0.00,,,-99.99,FreeWX 2.04,2013-12-19 00:55:00,
2013-12-18 19:00:00,61.5,51.3,30.12,SE,128,7.0,11.2,69,0.00,,,-99.99,FreeWX 2.04,2013-12-19 01:00:00,
2013-12-18 19:05:00,61.5,51.6,30.12,SE,129,7.0,12.1,70,0.00,,,-99.99,FreeWX 2.04,2013-12-19 01:05:00,
2013-12-18 19:10:00,61.5,52.0,30.12,SE,130,7.0,11.0,71,0.00,,,-99.99,FreeWX 2.04,2013-12-19 01:10:00,
2013-12-18 19:15:00,61.5,52.0,30.12,SE,133,7.0,12.5,71,0.00,,,-99.99,FreeWX 2.04,2013-12-19 01:15:00,
2013-12-18 19:20:00,61.7,52.2,30.12,SE,133,7.0,11.0,71,0.00,,,-99.99,FreeWX 2.04,2013-12-19 01:20:00,
2013-12-18 19:25:00,61.7,52.2,30.12,SE,132,7.0,11.6,71,0.00,,,-99.99,FreeWX 2.04,2013-12-19 01:25:00,
2013-12-18 19:30:00,61.7,52.2,30.12,SE,132,7.0,11.0,71,0.00,,,-99.99,FreeWX 2.04,2013-12-19 01:30:00,
2013-12-18 19:35:00,61.7,52.2,30.12,SE,133,8.0,11.6,71,0.00,,,-99.99,FreeWX 2.04,2013-12-19 01:35:00,
2013-12-18 19:40:00,61.7,52.5,30.12,SE,133,8.0,12.5,72,0.00,,,-99.99,FreeWX 2.04,2013-12-19 01:40:00,
2013-12-18 19:45:00,61.7,52.5,30.12,SE,133,7.0,11.2,72,0.00,,,-99.99,FreeWX 2.04,2013-12-19 01:45:00,
2013-12-18 19:50:00,61.7,52.5,30.12,SE,133,7.0,12.1,72,0.00,,,-99.99,FreeWX 2.04,2013-12-19 01:50:00,
2013-12-18 19:55:00,61.9,52.7,30.12,SE,132,8.0,12.5,72,0.00,,,-99.99,FreeWX 2.04,2013-12-19 01:55:00,
2013-12-18 20:00:00,61.9,52.7,30.12,SE,130,8.0,11.6,72,0.00,,,-99.99,FreeWX 2.04,2013-12-19 02:00:00,
2013-12-18 20:05:00,61.9,52.7,30.12,SE,131,7.0,11.2,72,0.00,,,-99.99,FreeWX 2.04,2013-12-19 02:05:00,
2013-12-18 20:10:00,61.9,52.7,30.12,SE,132,7.0,13.9,72,0.00,,,-99.99,FreeWX 2.04,2013-12-19 02:10:00,
2013-12-18 20:15:00,61.9,52.7,30.12,SE,131,8.0,13.0,72,0.00,,,-99.99,FreeWX 2.04,2013-12-19 02:15:00,
2013-12-18 20:20:00,61.9,52.7,30.12,SE,130,8.0,11.6,72,0.00,,,-99.99,FreeWX 2.04,2013-12-19 02:20:00,
2013-12-18 20:25:00,61.9,52.7,30.12,SE,131,8.0,14.8,72,0.00,,,-99.99,FreeWX 2.04,2013-12-19 02:25:00,
2013-12-18 20:30:00,61.9,53.1,30.09,SE,132,8.0,12.5,73,0.00,,,-99.99,FreeWX 2.04,2013-12-19 02:30:00,
2013-12-18 20:35:00,61.7,52.9,30.09,SE,134,8.0,13.9,73,0.00,,,-99.99,FreeWX 2.04,2013-12-19 02:35:00,
2013-12-18 20:40:00,61.7,52.9,30.09,SE,131,8.0,14.8,73,0.00,,,-99.99,FreeWX 2.04,2013-12-19 02:40:00,
2013-12-18 20:45:00,61.9,53.4,30.09,SE,130,8.0,13.9,74,0.00,,,-99.99,FreeWX 2.04,2013-12-19 02:45:00,
2013-12-18 20:50:00,61.9,53.4,30.09,SE,130,8.0,12.5,74,0.00,,,-99.99,FreeWX 2.04,2013-12-19 02:50:00,
2013-12-18 20:55:00,61.7,53.2,30.09,SE,131,8.0,13.9,74,0.00,,,-99.99,FreeWX 2.04,2013-12-19 02:55:00,
2013-12-18 21:00:00,61.7,53.2,30.09,SE,130,8.0,14.8,74,0.00,,,-99.99,FreeWX 2.04,2013-12-19 03:00:00,
2013-12-18 21:05:00,61.5,53.2,30.09,SE,131,8.0,13.4,74,0.00,,,-99.99,FreeWX 2.04,2013-12-19 03:05:00,
2013-12-18 21:10:00,61.5,53.6,30.09,SE,133,8.0,13.9,75,0.00,,,-99.99,FreeWX 2.04,2013-12-19 03:10:00,
2013-12-18 21:15:00,61.5,53.6,30.09,SE,133,8.0,12.1,75,0.00,,,-99.99,FreeWX 2.04,2013-12-19 03:15:00,
2013-12-18 21:20:00,61.5,53.6,30.09,SE,132,8.0,12.5,75,0.00,,,-99.99,FreeWX 2.04,2013-12-19 03:20:00,
2013-12-18 21:25:00,61.5,53.6,30.09,SE,132,8.0,13.0,75,0.00,,,-99.99,FreeWX 2.04,2013-12-19 03:25:00,
2013-12-18 21:30:00,61.3,53.4,30.09,SE,133,7.0,12.1,75,0.00,,,-99.99,FreeWX 2.04,2013-12-19 03:30:00,
2013-12-18 21:35:00,61.2,53.2,30.09,SE,132,7.0,11.2,75,0.00,,,-99.99,FreeWX 2.04,2013-12-19 03:35:00,
2013-12-18 21:40:00,61.2,53.2,30.09,SE,133,8.0,13.0,75,0.00,,,-99.99,FreeWX 2.04,2013-12-19 03:40:00,
2013-12-18 21:45:00,61.2,53.6,30.09,SE,133,7.0,11.2,76,0.00,,,-99.99,FreeWX 2.04,2013-12-19 03:45:00,
2013-12-18 21:50:00,61.0,53.4,30.09,SE,134,8.0,13.0,76,0.00,,,-99.99,FreeWX 2.04,2013-12-19 03:50:00,
2013-12-18 21:55:00,61.0,53.4,30.09,SE,133,8.0,12.5,76,0.00,,,-99.99,FreeWX 2.04,2013-12-19 03:55:00,
2013-12-18 22:00:00,61.0,53.8,30.09,SE,134,8.0,13.4,77,0.00,,,-99.99,FreeWX 2.04,2013-12-19 04:00:00,
2013-12-18 22:05:00,61.0,53.8,30.09,SE,134,8.0,11.6,77,0.00,,,-99.99,FreeWX 2.04,2013-12-19 04:05:00,
2013-12-18 22:10:00,61.2,54.3,30.09,SE,135,8.0,13.0,78,0.00,,,-99.99,FreeWX 2.04,2013-12-19 04:10:00,
2013-12-18 22:15:00,61.3,54.5,30.09,SE,136,9.0,15.2,78,0.00,,,-99.99,FreeWX 2.04,2013-12-19 04:15:00,
2013-12-18 22:20:00,61.5,54.7,30.09,SE,135,9.0,14.3,78,0.00,,,-99.99,FreeWX 2.04,2013-12-19 04:20:00,
2013-12-18 22:25:00,61.7,54.7,30.09,SE,134,9.0,13.9,78,0.00,,,-99.99,FreeWX 2.04,2013-12-19 04:25:00,
2013-12-18 22:30:00,61.7,54.7,30.09,SE,135,9.0,14.3,78,0.00,,,-99.99,FreeWX 2.04,2013-12-19 04:30:00,
2013-12-18 22:35:00,61.7,54.7,30.09,SE,135,9.0,15.2,78,0.00,,,-99.99,FreeWX 2.04,2013-12-19 04:35:00,
2013-12-18 22:40:00,61.7,54.7,30.09,SE,135,8.0,12.1,78,0.00,,,-99.99,FreeWX 2.04,2013-12-19 04:40:00,
2013-12-18 22:45:00,61.7,54.7,30.09,SE,132,8.0,12.5,78,0.00,,,-99.99,FreeWX 2.04,2013-12-19 04:45:00,
2013-12-18 22:50:00,61.7,54.7,30.09,SE,134,8.0,11.6,78,0.00,,,-99.99,FreeWX 2.04,2013-12-19 04:50:00,
2013-12-18 22:55:00,61.5,54.7,30.09,SE,137,8.0,11.6,78,0.00,,,-99.99,FreeWX 2.04,2013-12-19 04:55:00,
2013-12-18 23:00:00,61.3,54.5,30.09,SE,137,7.0,12.5,78,0.00,,,-99.99,FreeWX 2.04,2013-12-19 05:00:00,
2013-12-18 23:05:00,61.2,54.3,30.09,SE,136,8.0,12.5,78,0.00,,,-99.99,FreeWX 2.04,2013-12-19 05:05:00,
2013-12-18 23:10:00,61.2,54.7,30.09,SE,135,8.0,12.5,79,0.00,,,-99.99,FreeWX 2.04,2013-12-19 05:10:00,
2013-12-18 23:15:00,61.0,54.5,30.09,SE,134,8.0,12.5,79,0.00,,,-99.99,FreeWX 2.04,2013-12-19 05:15:00,
2013-12-18 23:20:00,61.0,54.5,30.09,SE,134,8.0,11.2,79,0.00,,,-99.99,FreeWX 2.04,2013-12-19 05:20:00,
2013-12-18 23:25:00,61.0,54.5,30.09,SE,134,8.0,13.9,79,0.00,,,-99.99,FreeWX 2.04,2013-12-19 05:25:00,
2013-12-18 23:30:00,61.0,54.7,30.09,SE,134,8.0,12.5,80,0.00,,,-99.99,FreeWX 2.04,2013-12-19 05:30:00,
2013-12-18 23:35:00,61.2,54.9,30.09,SE,133,8.0,11.0,80,0.00,,,-99.99,FreeWX 2.04,2013-12-19 05:35:00,
2013-12-18 23:40:00,61.2,54.9,30.09,SE,133,8.0,12.5,80,0.00,,,-99.99,FreeWX 2.04,2013-12-19 05:40:00,
2013-12-18 23:45:00,61.3,55.4,30.06,SE,133,8.0,15.2,81,0.00,,,-99.99,FreeWX 2.04,2013-12-19 05:45:00,
2013-12-18 23:50:00,61.3,55.4,30.06,SE,135,8.0,12.5,81,0.00,,,-99.99,FreeWX 2.04,2013-12-19 05:50:00,
2013-12-18 23:55:00,61.3,55.4,30.06,SE,136,8.0,12.1,81,0.00,,,-99.99,FreeWX 2.04,2013-12-19 05:55:00,